LFPO 231730Z 09004KT CAVOK 13/02 Q1032 NOSIG

ElémentsDécodage
LFPO Station météo située sur l'aérodrome de PARIS Orly
231730Z émis le 23 du mois à 17h30 UTC
09004KT vent du 090°, 04 noeuds
CAVOK Ceiling And Visibility OK
- Visibilité de 10 Km ou plus
- Pas de nuage au-dessous de 1500m ou au-dessous de l'altitude minimale du secteur la plus élevée (si>1500m) et absence de CB
- pas de temps présent significatif
13/02 température 13°C, point de rosée 02°C
 soit une humidité relative de 47%
Q1032 la pression au niveau de la mer (QNH) est de 1032 hPa
NOSIG Pas de changement significatif prévu au cours des deux heures suivant l'heure de l'observation